sensor_id;sensor_type;location;lat;lon;timestamp;P1;durP1;ratioP1;P2;durP2;ratioP2
34924;SDS011;21130;51.728;8.748;2023-08-31T00:01:30;19.48;;;16.55;;
34924;SDS011;21130;51.728;8.748;2023-08-31T00:03:58;22.08;;;16.42;;
34924;SDS011;21130;51.728;8.748;2023-08-31T00:06:25;21.73;;;15.93;;
34924;SDS011;21130;51.728;8.748;2023-08-31T00:08:51;23.08;;;16.63;;
34924;SDS011;21130;51.728;8.748;2023-08-31T00:11:18;20.60;;;15.07;;
34924;SDS011;21130;51.728;8.748;2023-08-31T00:13:46;23.00;;;15.95;;
34924;SDS011;21130;51.728;8.748;2023-08-31T00:16:12;18.90;;;14.18;;
34924;SDS011;21130;51.728;8.748;2023-08-31T00:18:39;19.15;;;15.32;;
34924;SDS011;21130;51.728;8.748;2023-08-31T00:21:06;19.98;;;15.23;;
34924;SDS011;21130;51.728;8.748;2023-08-31T00:23:33;20.67;;;15.50;;
34924;SDS011;21130;51.728;8.748;2023-08-31T00:26:00;19.02;;;15.35;;
34924;SDS011;21130;51.728;8.748;2023-08-31T00:28:27;20.73;;;14.90;;
34924;SDS011;21130;51.728;8.748;2023-08-31T00:30:55;18.38;;;15.55;;
34924;SDS011;21130;51.728;8.748;2023-08-31T00:33:22;19.55;;;14.80;;
34924;SDS011;21130;51.728;8.748;2023-08-31T00:35:51;18.25;;;15.40;;
34924;SDS011;21130;51.728;8.748;2023-08-31T00:38:17;22.13;;;16.80;;
34924;SDS011;21130;51.728;8.748;2023-08-31T00:41:03;23.42;;;16.08;;
34924;SDS011;21130;51.728;8.748;2023-08-31T00:43:29;20.38;;;15.38;;
34924;SDS011;21130;51.728;8.748;2023-08-31T00:45:58;20.98;;;16.67;;
34924;SDS011;21130;51.728;8.748;2023-08-31T00:48:24;23.25;;;16.20;;
34924;SDS011;21130;51.728;8.748;2023-08-31T00:50:51;20.38;;;16.45;;
34924;SDS011;21130;51.728;8.748;2023-08-31T00:53:18;28.45;;;17.27;;
34924;SDS011;21130;51.728;8.748;2023-08-31T00:55:45;22.70;;;17.02;;
34924;SDS011;21130;51.728;8.748;2023-08-31T00:58:12;19.25;;;17.20;;
34924;SDS011;21130;51.728;8.748;2023-08-31T01:00:40;26.95;;;17.98;;
34924;SDS011;21130;51.728;8.748;2023-08-31T01:03:23;26.60;;;17.50;;
34924;SDS011;21130;51.728;8.748;2023-08-31T01:05:58;24.60;;;16.67;;
34924;SDS011;21130;51.728;8.748;2023-08-31T01:08:33;23.15;;;17.00;;
34924;SDS011;21130;51.728;8.748;2023-08-31T01:11:07;21.67;;;16.67;;
34924;SDS011;21130;51.728;8.748;2023-08-31T01:13:44;22.48;;;18.35;;
34924;SDS011;21130;51.728;8.748;2023-08-31T01:16:16;24.35;;;17.67;;
34924;SDS011;21130;51.728;8.748;2023-08-31T01:18:46;26.75;;;18.42;;
34924;SDS011;21130;51.728;8.748;2023-08-31T01:21:17;26.48;;;17.95;;
34924;SDS011;21130;51.728;8.748;2023-08-31T01:23:53;21.88;;;17.75;;
34924;SDS011;21130;51.728;8.748;2023-08-31T01:26:21;25.67;;;18.70;;
34924;SDS011;21130;51.728;8.748;2023-08-31T01:28:49;26.38;;;20.08;;
34924;SDS011;21130;51.728;8.748;2023-08-31T01:31:41;29.88;;;19.17;;
34924;SDS011;21130;51.728;8.748;2023-08-31T01:34:26;30.23;;;19.60;;
34924;SDS011;21130;51.728;8.748;2023-08-31T01:37:14;32.85;;;19.85;;
34924;SDS011;21130;51.728;8.748;2023-08-31T01:39:47;26.85;;;18.48;;
34924;SDS011;21130;51.728;8.748;2023-08-31T01:42:18;24.70;;;19.15;;
34924;SDS011;21130;51.728;8.748;2023-08-31T01:44:45;29.13;;;18.42;;
34924;SDS011;21130;51.728;8.748;2023-08-31T01:47:14;27.30;;;18.80;;
34924;SDS011;21130;51.728;8.748;2023-08-31T01:49:42;28.05;;;18.85;;
34924;SDS011;21130;51.728;8.748;2023-08-31T01:52:09;27.05;;;19.70;;
34924;SDS011;21130;51.728;8.748;2023-08-31T01:54:36;28.48;;;20.05;;
34924;SDS011;21130;51.728;8.748;2023-08-31T01:57:04;34.10;;;21.50;;
34924;SDS011;21130;51.728;8.748;2023-08-31T01:59:31;28.85;;;18.55;;
34924;SDS011;21130;51.728;8.748;2023-08-31T02:01:58;29.95;;;20.83;;
34924;SDS011;21130;51.728;8.748;2023-08-31T02:04:24;32.40;;;20.38;;
34924;SDS011;21130;51.728;8.748;2023-08-31T02:06:51;26.85;;;19.20;;
34924;SDS011;21130;51.728;8.748;2023-08-31T02:09:17;28.42;;;18.73;;
34924;SDS011;21130;51.728;8.748;2023-08-31T02:11:44;27.30;;;18.00;;
34924;SDS011;21130;51.728;8.748;2023-08-31T02:14:11;29.17;;;19.33;;
34924;SDS011;21130;51.728;8.748;2023-08-31T02:16:38;27.77;;;19.00;;
34924;SDS011;21130;51.728;8.748;2023-08-31T02:19:05;24.70;;;18.75;;
34924;SDS011;21130;51.728;8.748;2023-08-31T02:21:31;25.13;;;17.38;;
34924;SDS011;21130;51.728;8.748;2023-08-31T02:23:57;31.02;;;19.80;;
34924;SDS011;21130;51.728;8.748;2023-08-31T02:26:24;23.70;;;17.73;;
34924;SDS011;21130;51.728;8.748;2023-08-31T02:28:50;25.85;;;16.83;;
34924;SDS011;21130;51.728;8.748;2023-08-31T02:31:18;27.95;;;18.17;;
34924;SDS011;21130;51.728;8.748;2023-08-31T02:33:45;27.27;;;18.65;;
34924;SDS011;21130;51.728;8.748;2023-08-31T02:36:12;25.75;;;17.17;;
34924;SDS011;21130;51.728;8.748;2023-08-31T02:38:38;22.33;;;16.95;;
34924;SDS011;21130;51.728;8.748;2023-08-31T02:41:05;25.63;;;17.20;;
34924;SDS011;21130;51.728;8.748;2023-08-31T02:43:31;24.42;;;17.38;;
34924;SDS011;21130;51.728;8.748;2023-08-31T02:46:01;31.67;;;19.33;;
34924;SDS011;21130;51.728;8.748;2023-08-31T02:48:29;29.13;;;19.52;;
34924;SDS011;21130;51.728;8.748;2023-08-31T02:50:56;22.45;;;17.90;;
34924;SDS011;21130;51.728;8.748;2023-08-31T02:53:23;29.70;;;18.30;;
34924;SDS011;21130;51.728;8.748;2023-08-31T02:55:50;25.13;;;18.33;;
34924;SDS011;21130;51.728;8.748;2023-08-31T02:58:16;24.55;;;17.27;;
34924;SDS011;21130;51.728;8.748;2023-08-31T03:00:43;23.25;;;16.38;;
34924;SDS011;21130;51.728;8.748;2023-08-31T03:03:12;26.65;;;17.08;;
34924;SDS011;21130;51.728;8.748;2023-08-31T03:05:40;29.92;;;16.95;;
34924;SDS011;21130;51.728;8.748;2023-08-31T03:08:07;23.15;;;15.35;;
34924;SDS011;21130;51.728;8.748;2023-08-31T03:10:33;22.05;;;16.33;;
34924;SDS011;21130;51.728;8.748;2023-08-31T03:13:00;21.13;;;14.57;;
34924;SDS011;21130;51.728;8.748;2023-08-31T03:15:26;19.88;;;13.25;;
34924;SDS011;21130;51.728;8.748;2023-08-31T03:17:52;20.17;;;13.27;;
34924;SDS011;21130;51.728;8.748;2023-08-31T03:20:19;15.45;;;12.45;;
34924;SDS011;21130;51.728;8.748;2023-08-31T03:22:47;18.05;;;12.00;;
34924;SDS011;21130;51.728;8.748;2023-08-31T03:25:14;16.67;;;11.68;;
34924;SDS011;21130;51.728;8.748;2023-08-31T03:27:40;17.88;;;10.65;;
34924;SDS011;21130;51.728;8.748;2023-08-31T03:30:07;15.68;;;10.10;;
34924;SDS011;21130;51.728;8.748;2023-08-31T03:32:34;12.95;;;9.15;;
34924;SDS011;21130;51.728;8.748;2023-08-31T03:35:01;11.07;;;8.82;;
34924;SDS011;21130;51.728;8.748;2023-08-31T03:37:28;10.40;;;7.70;;
34924;SDS011;21130;51.728;8.748;2023-08-31T03:40:16;9.73;;;7.82;;
34924;SDS011;21130;51.728;8.748;2023-08-31T03:43:01;14.15;;;8.23;;
34924;SDS011;21130;51.728;8.748;2023-08-31T03:45:28;11.23;;;8.02;;
34924;SDS011;21130;51.728;8.748;2023-08-31T03:47:55;9.02;;;6.55;;
34924;SDS011;21130;51.728;8.748;2023-08-31T03:50:21;11.25;;;6.95;;
34924;SDS011;21130;51.728;8.748;2023-08-31T03:52:48;12.63;;;7.30;;
34924;SDS011;21130;51.728;8.748;2023-08-31T03:55:14;8.88;;;6.88;;
34924;SDS011;21130;51.728;8.748;2023-08-31T03:57:42;12.10;;;8.15;;
34924;SDS011;21130;51.728;8.748;2023-08-31T04:00:10;8.90;;;7.90;;
34924;SDS011;21130;51.728;8.748;2023-08-31T04:02:37;12.50;;;8.88;;
34924;SDS011;21130;51.728;8.748;2023-08-31T04:05:04;12.23;;;8.98;;
34924;SDS011;21130;51.728;8.748;2023-08-31T04:07:32;10.57;;;8.85;;
34924;SDS011;21130;51.728;8.748;2023-08-31T04:09:58;16.85;;;10.48;;
34924;SDS011;21130;51.728;8.748;2023-08-31T04:12:25;13.00;;;10.45;;
34924;SDS011;21130;51.728;8.748;2023-08-31T04:14:53;15.57;;;10.57;;
34924;SDS011;21130;51.728;8.748;2023-08-31T04:17:19;13.27;;;11.15;;
34924;SDS011;21130;51.728;8.748;2023-08-31T04:19:46;15.82;;;11.23;;
34924;SDS011;21130;51.728;8.748;2023-08-31T04:22:12;15.00;;;10.88;;
34924;SDS011;21130;51.728;8.748;2023-08-31T04:24:38;17.48;;;11.88;;
34924;SDS011;21130;51.728;8.748;2023-08-31T04:27:05;16.38;;;12.32;;
34924;SDS011;21130;51.728;8.748;2023-08-31T04:29:31;20.25;;;12.98;;
34924;SDS011;21130;51.728;8.748;2023-08-31T04:31:59;18.27;;;12.32;;
34924;SDS011;21130;51.728;8.748;2023-08-31T04:34:26;17.85;;;12.73;;
34924;SDS011;21130;51.728;8.748;2023-08-31T04:36:52;19.80;;;11.85;;
34924;SDS011;21130;51.728;8.748;2023-08-31T04:39:19;18.52;;;13.63;;
34924;SDS011;21130;51.728;8.748;2023-08-31T04:41:45;17.25;;;12.82;;
34924;SDS011;21130;51.728;8.748;2023-08-31T04:44:12;19.27;;;13.05;;
34924;SDS011;21130;51.728;8.748;2023-08-31T04:46:38;16.90;;;12.57;;
34924;SDS011;21130;51.728;8.748;2023-08-31T04:49:07;17.05;;;12.95;;
34924;SDS011;21130;51.728;8.748;2023-08-31T04:51:36;17.55;;;13.70;;
34924;SDS011;21130;51.728;8.748;2023-08-31T04:54:04;17.48;;;13.25;;
34924;SDS011;21130;51.728;8.748;2023-08-31T04:56:31;14.98;;;13.05;;
34924;SDS011;21130;51.728;8.748;2023-08-31T04:58:58;14.27;;;12.70;;
34924;SDS011;21130;51.728;8.748;2023-08-31T05:01:25;19.10;;;12.93;;
34924;SDS011;21130;51.728;8.748;2023-08-31T05:03:52;14.95;;;13.35;;
34924;SDS011;21130;51.728;8.748;2023-08-31T05:06:20;16.50;;;12.60;;
34924;SDS011;21130;51.728;8.748;2023-08-31T05:08:47;14.68;;;12.80;;
34924;SDS011;21130;51.728;8.748;2023-08-31T05:11:14;14.50;;;12.95;;
34924;SDS011;21130;51.728;8.748;2023-08-31T05:13:40;16.27;;;12.45;;
34924;SDS011;21130;51.728;8.748;2023-08-31T05:16:08;17.13;;;12.82;;
34924;SDS011;21130;51.728;8.748;2023-08-31T05:18:34;16.38;;;13.20;;
34924;SDS011;21130;51.728;8.748;2023-08-31T05:21:01;16.15;;;14.02;;
34924;SDS011;21130;51.728;8.748;2023-08-31T05:23:28;17.48;;;14.00;;
34924;SDS011;21130;51.728;8.748;2023-08-31T05:25:55;17.33;;;13.70;;
34924;SDS011;21130;51.728;8.748;2023-08-31T05:28:22;15.35;;;13.82;;
34924;SDS011;21130;51.728;8.748;2023-08-31T05:30:49;19.60;;;14.05;;
34924;SDS011;21130;51.728;8.748;2023-08-31T05:33:16;17.73;;;15.52;;
34924;SDS011;21130;51.728;8.748;2023-08-31T05:35:43;16.05;;;14.43;;
34924;SDS011;21130;51.728;8.748;2023-08-31T05:38:09;15.90;;;14.20;;
34924;SDS011;21130;51.728;8.748;2023-08-31T05:40:37;16.33;;;14.27;;
34924;SDS011;21130;51.728;8.748;2023-08-31T05:43:04;16.13;;;13.68;;
34924;SDS011;21130;51.728;8.748;2023-08-31T05:45:31;15.55;;;13.88;;
34924;SDS011;21130;51.728;8.748;2023-08-31T05:47:58;19.13;;;14.45;;
34924;SDS011;21130;51.728;8.748;2023-08-31T05:50:25;17.58;;;14.05;;
34924;SDS011;21130;51.728;8.748;2023-08-31T05:52:52;17.58;;;14.15;;
34924;SDS011;21130;51.728;8.748;2023-08-31T05:55:18;15.02;;;13.55;;
34924;SDS011;21130;51.728;8.748;2023-08-31T05:57:46;16.67;;;14.35;;
34924;SDS011;21130;51.728;8.748;2023-08-31T06:00:13;16.17;;;14.60;;
34924;SDS011;21130;51.728;8.748;2023-08-31T06:02:41;18.45;;;14.52;;
34924;SDS011;21130;51.728;8.748;2023-08-31T06:05:08;16.27;;;14.68;;
34924;SDS011;21130;51.728;8.748;2023-08-31T06:07:37;16.08;;;13.80;;
34924;SDS011;21130;51.728;8.748;2023-08-31T06:10:03;16.02;;;13.85;;
34924;SDS011;21130;51.728;8.748;2023-08-31T06:12:30;15.82;;;13.77;;
34924;SDS011;21130;51.728;8.748;2023-08-31T06:14:59;14.90;;;13.40;;
34924;SDS011;21130;51.728;8.748;2023-08-31T06:17:25;12.93;;;11.63;;
34924;SDS011;21130;51.728;8.748;2023-08-31T06:19:52;14.13;;;12.60;;
34924;SDS011;21130;51.728;8.748;2023-08-31T06:22:18;13.05;;;11.80;;
34924;SDS011;21130;51.728;8.748;2023-08-31T06:24:47;12.85;;;11.57;;
34924;SDS011;21130;51.728;8.748;2023-08-31T06:27:13;13.10;;;11.82;;
34924;SDS011;21130;51.728;8.748;2023-08-31T06:29:41;12.02;;;10.77;;
34924;SDS011;21130;51.728;8.748;2023-08-31T06:32:08;14.52;;;10.63;;
34924;SDS011;21130;51.728;8.748;2023-08-31T06:34:35;11.32;;;10.20;;
34924;SDS011;21130;51.728;8.748;2023-08-31T06:37:01;12.50;;;9.75;;
34924;SDS011;21130;51.728;8.748;2023-08-31T06:39:29;10.10;;;8.77;;
34924;SDS011;21130;51.728;8.748;2023-08-31T06:41:55;9.27;;;8.32;;
34924;SDS011;21130;51.728;8.748;2023-08-31T06:44:22;9.43;;;7.65;;
34924;SDS011;21130;51.728;8.748;2023-08-31T06:46:48;8.95;;;7.82;;
34924;SDS011;21130;51.728;8.748;2023-08-31T06:49:16;9.73;;;8.23;;
34924;SDS011;21130;51.728;8.748;2023-08-31T06:51:43;9.43;;;7.95;;
34924;SDS011;21130;51.728;8.748;2023-08-31T06:54:09;9.50;;;8.48;;
34924;SDS011;21130;51.728;8.748;2023-08-31T06:56:36;10.73;;;8.60;;
34924;SDS011;21130;51.728;8.748;2023-08-31T06:59:02;9.48;;;8.35;;
34924;SDS011;21130;51.728;8.748;2023-08-31T07:01:29;10.93;;;9.60;;
34924;SDS011;21130;51.728;8.748;2023-08-31T07:03:57;9.95;;;8.98;;
34924;SDS011;21130;51.728;8.748;2023-08-31T07:06:26;10.75;;;9.65;;
34924;SDS011;21130;51.728;8.748;2023-08-31T07:08:52;10.45;;;9.15;;
34924;SDS011;21130;51.728;8.748;2023-08-31T07:11:19;10.50;;;9.50;;
34924;SDS011;21130;51.728;8.748;2023-08-31T07:13:45;11.82;;;10.02;;
34924;SDS011;21130;51.728;8.748;2023-08-31T07:16:12;10.70;;;9.60;;
34924;SDS011;21130;51.728;8.748;2023-08-31T07:18:38;11.70;;;9.38;;
34924;SDS011;21130;51.728;8.748;2023-08-31T07:21:05;11.63;;;9.35;;
34924;SDS011;21130;51.728;8.748;2023-08-31T07:23:32;10.20;;;9.15;;
34924;SDS011;21130;51.728;8.748;2023-08-31T07:25:59;9.30;;;8.10;;
34924;SDS011;21130;51.728;8.748;2023-08-31T07:28:26;10.80;;;7.28;;
34924;SDS011;21130;51.728;8.748;2023-08-31T07:31:00;7.97;;;7.20;;
34924;SDS011;21130;51.728;8.748;2023-08-31T07:33:28;7.18;;;5.80;;
34924;SDS011;21130;51.728;8.748;2023-08-31T07:35:55;7.88;;;5.55;;
34924;SDS011;21130;51.728;8.748;2023-08-31T07:38:21;5.78;;;5.25;;
34924;SDS011;21130;51.728;8.748;2023-08-31T07:40:49;6.45;;;5.18;;
34924;SDS011;21130;51.728;8.748;2023-08-31T07:43:16;7.07;;;4.85;;
34924;SDS011;21130;51.728;8.748;2023-08-31T07:45:43;5.32;;;4.47;;
34924;SDS011;21130;51.728;8.748;2023-08-31T07:48:10;5.93;;;4.10;;
34924;SDS011;21130;51.728;8.748;2023-08-31T07:50:36;4.97;;;4.30;;
34924;SDS011;21130;51.728;8.748;2023-08-31T07:53:06;7.40;;;4.20;;
34924;SDS011;21130;51.728;8.748;2023-08-31T07:55:32;6.05;;;3.97;;
34924;SDS011;21130;51.728;8.748;2023-08-31T07:58:01;4.65;;;4.25;;
34924;SDS011;21130;51.728;8.748;2023-08-31T08:00:28;4.55;;;3.80;;
34924;SDS011;21130;51.728;8.748;2023-08-31T08:02:54;5.78;;;3.35;;
34924;SDS011;21130;51.728;8.748;2023-08-31T08:05:21;4.22;;;3.65;;
34924;SDS011;21130;51.728;8.748;2023-08-31T08:07:47;5.95;;;3.47;;
34924;SDS011;21130;51.728;8.748;2023-08-31T08:10:14;4.07;;;3.13;;
34924;SDS011;21130;51.728;8.748;2023-08-31T08:12:41;5.55;;;3.22;;
34924;SDS011;21130;51.728;8.748;2023-08-31T08:15:12;4.10;;;3.20;;
34924;SDS011;21130;51.728;8.748;2023-08-31T08:17:39;4.22;;;2.65;;
34924;SDS011;21130;51.728;8.748;2023-08-31T08:20:06;4.78;;;2.92;;
34924;SDS011;21130;51.728;8.748;2023-08-31T08:22:34;5.05;;;3.40;;
34924;SDS011;21130;51.728;8.748;2023-08-31T08:25:01;5.40;;;3.20;;
34924;SDS011;21130;51.728;8.748;2023-08-31T08:27:27;5.32;;;3.55;;
34924;SDS011;21130;51.728;8.748;2023-08-31T08:29:54;5.60;;;4.22;;
34924;SDS011;21130;51.728;8.748;2023-08-31T08:32:22;4.65;;;4.25;;
34924;SDS011;21130;51.728;8.748;2023-08-31T08:34:48;6.90;;;5.18;;
34924;SDS011;21130;51.728;8.748;2023-08-31T08:37:15;7.68;;;5.20;;
34924;SDS011;21130;51.728;8.748;2023-08-31T08:39:42;6.90;;;5.40;;
34924;SDS011;21130;51.728;8.748;2023-08-31T08:42:10;6.45;;;5.65;;
34924;SDS011;21130;51.728;8.748;2023-08-31T08:44:36;7.82;;;5.10;;
34924;SDS011;21130;51.728;8.748;2023-08-31T08:47:04;6.88;;;5.30;;
34924;SDS011;21130;51.728;8.748;2023-08-31T08:49:33;6.75;;;5.22;;
34924;SDS011;21130;51.728;8.748;2023-08-31T08:52:01;5.65;;;5.05;;
34924;SDS011;21130;51.728;8.748;2023-08-31T08:54:28;6.40;;;4.40;;
34924;SDS011;21130;51.728;8.748;2023-08-31T08:56:55;4.97;;;4.35;;
34924;SDS011;21130;51.728;8.748;2023-08-31T08:59:23;6.07;;;4.18;;
34924;SDS011;21130;51.728;8.748;2023-08-31T09:01:49;6.03;;;3.58;;
34924;SDS011;21130;51.728;8.748;2023-08-31T09:04:16;6.43;;;3.70;;
34924;SDS011;21130;51.728;8.748;2023-08-31T09:06:44;3.92;;;3.28;;
34924;SDS011;21130;51.728;8.748;2023-08-31T09:09:11;3.83;;;3.10;;
34924;SDS011;21130;51.728;8.748;2023-08-31T09:11:37;4.55;;;3.30;;
34924;SDS011;21130;51.728;8.748;2023-08-31T09:14:13;6.22;;;3.25;;
34924;SDS011;21130;51.728;8.748;2023-08-31T09:16:41;6.70;;;3.58;;
34924;SDS011;21130;51.728;8.748;2023-08-31T09:19:17;5.03;;;3.08;;
34924;SDS011;21130;51.728;8.748;2023-08-31T09:21:47;5.90;;;3.40;;
34924;SDS011;21130;51.728;8.748;2023-08-31T09:24:13;5.22;;;3.05;;
34924;SDS011;21130;51.728;8.748;2023-08-31T09:26:39;5.97;;;3.38;;
34924;SDS011;21130;51.728;8.748;2023-08-31T09:29:09;4.72;;;3.28;;
34924;SDS011;21130;51.728;8.748;2023-08-31T09:31:35;6.28;;;3.42;;
34924;SDS011;21130;51.728;8.748;2023-08-31T09:34:03;3.53;;;3.20;;
34924;SDS011;21130;51.728;8.748;2023-08-31T09:36:29;3.45;;;2.85;;
34924;SDS011;21130;51.728;8.748;2023-08-31T09:38:58;7.18;;;3.55;;
34924;SDS011;21130;51.728;8.748;2023-08-31T09:41:25;4.43;;;3.63;;
34924;SDS011;21130;51.728;8.748;2023-08-31T09:43:52;5.65;;;3.85;;
34924;SDS011;21130;51.728;8.748;2023-08-31T09:46:18;5.07;;;4.00;;
34924;SDS011;21130;51.728;8.748;2023-08-31T09:48:49;3.75;;;3.38;;
34924;SDS011;21130;51.728;8.748;2023-08-31T09:51:16;4.00;;;3.17;;
34924;SDS011;21130;51.728;8.748;2023-08-31T09:53:48;3.25;;;2.92;;
34924;SDS011;21130;51.728;8.748;2023-08-31T09:56:18;3.95;;;3.00;;
34924;SDS011;21130;51.728;8.748;2023-08-31T09:58:49;5.03;;;3.38;;
34924;SDS011;21130;51.728;8.748;2023-08-31T10:01:16;4.32;;;2.95;;
34924;SDS011;21130;51.728;8.748;2023-08-31T10:03:43;3.00;;;2.70;;
34924;SDS011;21130;51.728;8.748;2023-08-31T10:06:10;5.20;;;3.17;;
34924;SDS011;21130;51.728;8.748;2023-08-31T10:08:37;5.18;;;3.80;;
34924;SDS011;21130;51.728;8.748;2023-08-31T10:11:04;6.22;;;3.35;;
34924;SDS011;21130;51.728;8.748;2023-08-31T10:13:33;4.70;;;3.30;;
34924;SDS011;21130;51.728;8.748;2023-08-31T10:16:04;4.63;;;2.97;;
34924;SDS011;21130;51.728;8.748;2023-08-31T10:18:31;5.22;;;2.95;;
34924;SDS011;21130;51.728;8.748;2023-08-31T10:21:00;6.45;;;2.90;;
34924;SDS011;21130;51.728;8.748;2023-08-31T10:23:28;4.32;;;2.47;;
34924;SDS011;21130;51.728;8.748;2023-08-31T10:26:02;4.35;;;2.25;;
34924;SDS011;21130;51.728;8.748;2023-08-31T10:28:29;5.05;;;2.50;;
34924;SDS011;21130;51.728;8.748;2023-08-31T10:31:07;4.43;;;2.47;;
34924;SDS011;21130;51.728;8.748;2023-08-31T10:33:35;6.40;;;2.45;;
34924;SDS011;21130;51.728;8.748;2023-08-31T10:36:09;5.22;;;2.35;;
34924;SDS011;21130;51.728;8.748;2023-08-31T10:38:36;4.63;;;2.47;;
34924;SDS011;21130;51.728;8.748;2023-08-31T10:41:16;2.60;;;1.95;;
34924;SDS011;21130;51.728;8.748;2023-08-31T10:43:47;4.57;;;2.10;;
34924;SDS011;21130;51.728;8.748;2023-08-31T10:46:15;5.53;;;2.10;;
34924;SDS011;21130;51.728;8.748;2023-08-31T10:49:00;5.03;;;2.05;;
34924;SDS011;21130;51.728;8.748;2023-08-31T10:51:30;2.97;;;1.80;;
34924;SDS011;21130;51.728;8.748;2023-08-31T10:54:07;4.50;;;2.20;;
34924;SDS011;21130;51.728;8.748;2023-08-31T10:56:52;4.15;;;1.70;;
34924;SDS011;21130;51.728;8.748;2023-08-31T10:59:41;4.43;;;2.10;;
34924;SDS011;21130;51.728;8.748;2023-08-31T11:02:09;2.92;;;1.83;;
34924;SDS011;21130;51.728;8.748;2023-08-31T11:07:23;2.35;;;1.52;;
34924;SDS011;21130;51.728;8.748;2023-08-31T11:09:51;4.30;;;1.73;;
34924;SDS011;21130;51.728;8.748;2023-08-31T11:12:21;2.33;;;1.38;;
34924;SDS011;21130;51.728;8.748;2023-08-31T11:14:49;3.40;;;1.83;;
34924;SDS011;21130;51.728;8.748;2023-08-31T11:17:16;2.25;;;1.73;;
34924;SDS011;21130;51.728;8.748;2023-08-31T11:19:42;3.33;;;1.52;;
34924;SDS011;21130;51.728;8.748;2023-08-31T11:22:10;3.33;;;1.70;;
34924;SDS011;21130;51.728;8.748;2023-08-31T11:24:37;3.80;;;1.60;;
34924;SDS011;21130;51.728;8.748;2023-08-31T11:27:05;4.20;;;1.50;;
34924;SDS011;21130;51.728;8.748;2023-08-31T11:29:36;3.55;;;2.00;;
34924;SDS011;21130;51.728;8.748;2023-08-31T11:32:04;3.15;;;1.77;;
34924;SDS011;21130;51.728;8.748;2023-08-31T11:34:31;1.65;;;1.45;;
34924;SDS011;21130;51.728;8.748;2023-08-31T11:36:58;4.03;;;1.90;;
34924;SDS011;21130;51.728;8.748;2023-08-31T11:39:24;5.13;;;2.55;;
34924;SDS011;21130;51.728;8.748;2023-08-31T11:41:51;5.65;;;2.60;;
34924;SDS011;21130;51.728;8.748;2023-08-31T11:44:18;6.20;;;2.90;;
34924;SDS011;21130;51.728;8.748;2023-08-31T11:46:45;4.75;;;3.40;;
34924;SDS011;21130;51.728;8.748;2023-08-31T11:49:16;6.28;;;3.90;;
34924;SDS011;21130;51.728;8.748;2023-08-31T11:51:44;5.68;;;2.97;;
34924;SDS011;21130;51.728;8.748;2023-08-31T11:54:11;6.25;;;3.88;;
34924;SDS011;21130;51.728;8.748;2023-08-31T11:56:38;4.65;;;2.67;;
34924;SDS011;21130;51.728;8.748;2023-08-31T12:02:13;2.22;;;2.03;;
34924;SDS011;21130;51.728;8.748;2023-08-31T12:04:44;2.47;;;1.90;;
34924;SDS011;21130;51.728;8.748;2023-08-31T12:07:12;3.92;;;1.90;;
34924;SDS011;21130;51.728;8.748;2023-08-31T12:09:42;2.58;;;1.60;;
34924;SDS011;21130;51.728;8.748;2023-08-31T12:12:09;3.63;;;2.13;;
34924;SDS011;21130;51.728;8.748;2023-08-31T12:14:36;2.45;;;1.70;;
34924;SDS011;21130;51.728;8.748;2023-08-31T12:17:05;2.90;;;2.20;;
34924;SDS011;21130;51.728;8.748;2023-08-31T12:19:33;3.17;;;2.10;;
34924;SDS011;21130;51.728;8.748;2023-08-31T12:22:04;3.83;;;1.90;;
34924;SDS011;21130;51.728;8.748;2023-08-31T12:24:36;3.08;;;1.70;;
34924;SDS011;21130;51.728;8.748;2023-08-31T12:27:03;2.35;;;1.90;;
34924;SDS011;21130;51.728;8.748;2023-08-31T12:29:30;1.98;;;1.77;;
34924;SDS011;21130;51.728;8.748;2023-08-31T12:31:57;3.65;;;1.80;;
34924;SDS011;21130;51.728;8.748;2023-08-31T12:34:24;2.78;;;1.75;;
34924;SDS011;21130;51.728;8.748;2023-08-31T12:36:51;4.07;;;1.88;;
34924;SDS011;21130;51.728;8.748;2023-08-31T12:39:19;3.17;;;1.70;;
34924;SDS011;21130;51.728;8.748;2023-08-31T12:41:45;2.63;;;2.17;;
34924;SDS011;21130;51.728;8.748;2023-08-31T12:44:12;4.00;;;2.10;;
34924;SDS011;21130;51.728;8.748;2023-08-31T12:46:38;4.13;;;1.88;;
34924;SDS011;21130;51.728;8.748;2023-08-31T12:49:05;2.05;;;1.30;;
34924;SDS011;21130;51.728;8.748;2023-08-31T12:51:31;1.75;;;1.45;;
34924;SDS011;21130;51.728;8.748;2023-08-31T12:53:58;1.75;;;1.65;;
34924;SDS011;21130;51.728;8.748;2023-08-31T12:56:25;1.95;;;1.58;;
34924;SDS011;21130;51.728;8.748;2023-08-31T12:58:55;2.15;;;1.70;;
34924;SDS011;21130;51.728;8.748;2023-08-31T13:01:22;3.65;;;2.08;;
34924;SDS011;21130;51.728;8.748;2023-08-31T13:03:48;2.95;;;1.80;;
34924;SDS011;21130;51.728;8.748;2023-08-31T13:06:17;3.65;;;1.90;;
34924;SDS011;21130;51.728;8.748;2023-08-31T13:08:44;3.78;;;1.80;;
34924;SDS011;21130;51.728;8.748;2023-08-31T13:11:11;1.95;;;1.63;;
34924;SDS011;21130;51.728;8.748;2023-08-31T13:13:40;2.38;;;1.60;;
34924;SDS011;21130;51.728;8.748;2023-08-31T13:16:06;1.70;;;1.60;;
34924;SDS011;21130;51.728;8.748;2023-08-31T13:18:33;4.07;;;1.33;;
34924;SDS011;21130;51.728;8.748;2023-08-31T13:20:59;2.38;;;1.45;;
34924;SDS011;21130;51.728;8.748;2023-08-31T13:23:26;3.13;;;1.58;;
34924;SDS011;21130;51.728;8.748;2023-08-31T13:25:52;3.28;;;1.70;;
34924;SDS011;21130;51.728;8.748;2023-08-31T13:28:23;2.17;;;1.48;;
34924;SDS011;21130;51.728;8.748;2023-08-31T13:30:54;2.10;;;1.33;;
34924;SDS011;21130;51.728;8.748;2023-08-31T13:33:21;2.80;;;1.30;;
34924;SDS011;21130;51.728;8.748;2023-08-31T13:35:48;2.78;;;1.67;;
34924;SDS011;21130;51.728;8.748;2023-08-31T13:38:15;2.40;;;1.45;;
34924;SDS011;21130;51.728;8.748;2023-08-31T13:40:41;3.20;;;1.48;;
34924;SDS011;21130;51.728;8.748;2023-08-31T13:43:09;1.88;;;1.45;;
34924;SDS011;21130;51.728;8.748;2023-08-31T13:45:35;2.92;;;2.00;;
34924;SDS011;21130;51.728;8.748;2023-08-31T13:48:03;3.33;;;1.90;;
34924;SDS011;21130;51.728;8.748;2023-08-31T13:50:30;2.40;;;1.42;;
34924;SDS011;21130;51.728;8.748;2023-08-31T13:52:57;3.35;;;1.65;;
34924;SDS011;21130;51.728;8.748;2023-08-31T13:55:23;2.20;;;1.40;;
34924;SDS011;21130;51.728;8.748;2023-08-31T13:57:51;4.05;;;1.73;;
34924;SDS011;21130;51.728;8.748;2023-08-31T14:00:18;2.97;;;1.73;;
34924;SDS011;21130;51.728;8.748;2023-08-31T14:02:45;3.85;;;1.70;;
34924;SDS011;21130;51.728;8.748;2023-08-31T14:05:13;3.35;;;1.88;;
34924;SDS011;21130;51.728;8.748;2023-08-31T14:07:39;3.10;;;1.92;;
34924;SDS011;21130;51.728;8.748;2023-08-31T14:10:07;4.05;;;1.58;;
34924;SDS011;21130;51.728;8.748;2023-08-31T14:12:34;3.90;;;1.73;;
34924;SDS011;21130;51.728;8.748;2023-08-31T14:15:01;3.40;;;1.88;;
34924;SDS011;21130;51.728;8.748;2023-08-31T14:17:31;2.28;;;1.77;;
34924;SDS011;21130;51.728;8.748;2023-08-31T14:19:58;2.38;;;1.65;;
34924;SDS011;21130;51.728;8.748;2023-08-31T14:22:27;6.60;;;1.63;;
34924;SDS011;21130;51.728;8.748;2023-08-31T14:24:54;4.53;;;2.10;;
34924;SDS011;21130;51.728;8.748;2023-08-31T14:27:21;3.42;;;1.60;;
34924;SDS011;21130;51.728;8.748;2023-08-31T14:29:48;3.83;;;2.20;;
34924;SDS011;21130;51.728;8.748;2023-08-31T14:32:14;3.90;;;1.48;;
34924;SDS011;21130;51.728;8.748;2023-08-31T14:34:41;3.03;;;1.30;;
34924;SDS011;21130;51.728;8.748;2023-08-31T14:37:07;1.33;;;0.80;;
34924;SDS011;21130;51.728;8.748;2023-08-31T14:39:35;1.55;;;1.00;;
34924;SDS011;21130;51.728;8.748;2023-08-31T14:42:02;1.83;;;0.90;;
34924;SDS011;21130;51.728;8.748;2023-08-31T14:44:31;1.55;;;1.00;;
34924;SDS011;21130;51.728;8.748;2023-08-31T14:46:58;1.20;;;1.10;;